首页
METAR-TAF:

METAR-TAF

机场 :

阿巴斯港國際機場

阿巴斯港, 伊朗

纬度: 27-13N, 经度: 056-22E, 海拔: 10米

当前天气观测

该预报发布于38分钟前的07:30 UTC
静风
温度 24°C
湿度 65%
气压 1018 hPa
能見度: 3000
少量云层高于3000英尺
阴天层高于10000英尺

METAR: OIKB 100730Z 00000KT 3000 HZ FEW030 OVC100 24/17 Q1018 A3007

时间: 11:38 (08:08 UTC)

预报

该预报发布于2小时和38分钟前的05:30 UTC
预报有效从10日的 06点(UTC)到 11日的 12点(UTC)
风速10节,风向南转西南
能見度: 4000
少量云层高于2500英尺, 积雨云.
散云层高于3000英尺
多云层高于10000英尺
短暂存在
从 10日的 18点(UTC)到 11日的 04点(UTC)
能見度: 1500
散云层高于2500英尺, 积雨云.
散云层高于3000英尺
多云层高于10000英尺
雷暴, 雨
成为
从 11日的 06点(UTC)到 11日的 08点(UTC)
能見度: 6000
少量云层高于3000英尺
多云层高于10000英尺

TAF: OIKB 100530Z 1006/1112 20010KT 4000 RA FEW025CB SCT030 BKN100 TEMPO 1018/1104 1500 TSRA SCT025CB SCT030 BKN100 BECMG 1106/1108 6000 FEW030 BKN100

超过4000个机场的气象观测和天气预报(METAR&TAF报告)。

可查询的气象台以黄色和红色小点在地图上表示。

将鼠标移到小点上方,可查看气象台名称。

然后点击查看天气观测和预报。

如需切换地图:点击带黑十字的绿色按钮放大地图;点击带横线的绿色按钮缩小地图;或者点击绿色箭头查看邻近地区的地图。


METAR-TAF: